createdAt,value
2022-12-20T06:17:14.511Z,1007.82
2022-12-20T06:27:14.722Z,1007.71
2022-12-20T06:37:14.763Z,1007.77
2022-12-20T06:47:14.605Z,1007.62
2022-12-20T06:57:14.730Z,1007.43
2022-12-20T07:07:14.796Z,1007.66
2022-12-20T07:17:14.652Z,1007.60
2022-12-20T07:27:14.691Z,1007.50
2022-12-20T07:37:14.728Z,1007.44
2022-12-20T07:47:14.687Z,1007.57
2022-12-20T07:57:15.105Z,1007.69
2022-12-20T08:07:14.723Z,1007.65
2022-12-20T08:17:14.791Z,1007.73
2022-12-20T08:27:14.752Z,1007.47
2022-12-20T08:37:15.405Z,1007.38
2022-12-20T08:47:15.005Z,1007.42
2022-12-20T08:57:15.129Z,1007.19
2022-12-20T09:07:15.246Z,1007.10
2022-12-20T09:17:15.173Z,1006.95
2022-12-20T09:27:15.062Z,1007.19
2022-12-20T09:37:15.137Z,1007.03
2022-12-20T09:47:15.189Z,1006.66
2022-12-20T09:57:15.123Z,1006.68
2022-12-20T10:07:15.262Z,1006.49
2022-12-20T10:17:15.151Z,1006.50
2022-12-20T10:27:15.048Z,1006.53
2022-12-20T10:37:15.167Z,1006.21
2022-12-20T10:47:15.223Z,1006.10
2022-12-20T10:57:15.264Z,1006.13
2022-12-20T11:07:15.194Z,1006.02
2022-12-20T11:17:15.178Z,1005.95
2022-12-20T11:27:15.874Z,1005.85
2022-12-20T11:37:15.245Z,1005.69
2022-12-20T11:47:15.383Z,1005.51
2022-12-20T11:57:15.181Z,1005.43
2022-12-20T12:07:15.084Z,1005.50
2022-12-20T12:17:15.245Z,1005.40
2022-12-20T12:27:16.321Z,1005.46
2022-12-20T12:37:15.235Z,1005.19
2022-12-20T12:47:15.154Z,1005.00
2022-12-20T12:57:15.165Z,1004.93
2022-12-20T13:07:15.489Z,1004.98
2022-12-20T13:17:19.394Z,1004.87
2022-12-20T13:27:15.332Z,1004.59
2022-12-20T13:37:15.151Z,1004.92
2022-12-20T13:47:15.137Z,1004.78
2022-12-20T13:57:15.275Z,1004.71
2022-12-20T14:07:15.254Z,1004.82
2022-12-20T14:17:15.316Z,1004.70
2022-12-20T14:27:15.205Z,1004.72
2022-12-20T14:37:15.165Z,1004.65
2022-12-20T14:47:15.237Z,1004.63
2022-12-20T14:57:15.300Z,1004.48
2022-12-20T15:07:15.277Z,1004.47
2022-12-20T15:17:15.220Z,1004.51
2022-12-20T15:27:15.239Z,1004.37
2022-12-20T15:37:18.378Z,1004.15
2022-12-20T15:47:15.445Z,1003.90
2022-12-20T15:57:15.358Z,1004.01
2022-12-20T16:07:15.345Z,1004.04
2022-12-20T16:17:15.282Z,1004.18
2022-12-20T16:27:15.347Z,1004.36
2022-12-20T16:37:15.247Z,1004.33
2022-12-20T16:47:15.427Z,1004.48
2022-12-20T16:57:15.366Z,1004.46
2022-12-20T17:07:15.410Z,1004.46
2022-12-20T17:17:15.444Z,1004.37
2022-12-20T17:27:15.516Z,1004.20
2022-12-20T17:37:15.441Z,1004.30
2022-12-20T17:47:15.272Z,1004.25
2022-12-20T17:57:15.438Z,1004.33
2022-12-20T18:07:15.304Z,1004.30
2022-12-20T18:17:15.444Z,1004.17
2022-12-20T18:27:15.423Z,1004.21
2022-12-20T18:37:15.334Z,1004.09
2022-12-20T18:47:15.427Z,1004.11
2022-12-20T18:57:15.598Z,1003.97
2022-12-20T19:07:15.514Z,1003.89
2022-12-20T19:17:15.636Z,1003.68
